Time;durP1;ratioP1;P1;durP2;ratioP2;P2;SDS_P1;SDS_P2;PMS_P1;PMS_P2;Temp;Humidity;BMP_temperature;BMP_pressure;BME280_temperature;BME280_humidity;BME280_pressure;Samples;Min_cycle;Max_cycle;Signal;HPM_P1;HPM_P2
2023/02/18 00:02:10;;;;;;;8.67;1.27;;;6.90;99.90;;;;;;4938056;29;20213;-84
2023/02/18 00:04:35;;;;;;;6.80;1.50;;;6.90;99.90;;;;;;4952375;29;20240;-85
2023/02/18 00:07:01;;;;;;;8.03;1.90;;;6.90;99.90;;;;;;4937852;29;20178;-85
2023/02/18 00:09:27;;;;;;;5.57;1.27;;;7.00;99.90;;;;;;4936544;29;20189;-85
2023/02/18 00:11:52;;;;;;;7.00;1.17;;;7.00;99.90;;;;;;4937617;29;20210;-85
2023/02/18 00:14:18;;;;;;;7.33;1.37;;;6.90;99.90;;;;;;4936913;29;20617;-85
2023/02/18 00:16:45;;;;;;;11.47;1.50;;;6.80;99.90;;;;;;4952272;29;20649;-84
2023/02/18 00:19:18;;;;;;;8.57;1.80;;;6.80;99.90;;;;;;4952384;29;20272;-85
2023/02/18 00:21:45;;;;;;;6.13;1.30;;;6.90;99.90;;;;;;4952440;29;20535;-85
2023/02/18 00:24:16;;;;;;;10.80;1.70;;;6.90;99.90;;;;;;4952422;29;20627;-85
2023/02/18 00:26:43;;;;;;;4.93;1.30;;;6.90;99.90;;;;;;4952253;29;20265;-85
2023/02/18 00:29:08;;;;;;;6.07;1.10;;;7.00;99.90;;;;;;4951789;29;20212;-85
2023/02/18 00:31:36;;;;;;;8.10;1.60;;;6.90;99.90;;;;;;4950920;28;20704;-85
2023/02/18 00:34:03;;;;;;;9.67;1.83;;;6.90;99.90;;;;;;4937371;29;20233;-85
2023/02/18 00:36:29;;;;;;;6.63;1.53;;;7.00;99.90;;;;;;4952013;29;20185;-86
2023/02/18 00:38:59;;;;;;;7.50;1.53;;;7.00;99.90;;;;;;4951953;29;20263;-84
2023/02/18 00:41:27;;;;;;;7.73;1.63;;;6.90;99.90;;;;;;4952079;28;20272;-85
2023/02/18 00:43:53;;;;;;;4.83;1.33;;;7.00;99.90;;;;;;4951587;29;20528;-84
2023/02/18 00:46:20;;;;;;;7.97;1.63;;;7.00;99.90;;;;;;4935947;29;20186;-86
2023/02/18 00:48:45;;;;;;;7.07;1.37;;;7.10;99.90;;;;;;4935939;29;20677;-84
2023/02/18 00:51:12;;;;;;;6.27;1.40;;;7.00;99.90;;;;;;4951637;29;20189;-85
2023/02/18 00:53:38;;;;;;;11.50;1.50;;;7.00;99.90;;;;;;4951842;29;20186;-84
2023/02/18 00:56:05;;;;;;;6.77;1.40;;;7.00;99.90;;;;;;4951572;28;20194;-85
2023/02/18 00:58:31;;;;;;;7.67;1.33;;;6.90;99.90;;;;;;4936822;29;20261;-84
2023/02/18 01:00:57;;;;;;;9.23;1.47;;;7.00;99.90;;;;;;4951554;29;20646;-84
2023/02/18 01:03:23;;;;;;;8.47;1.30;;;7.00;99.90;;;;;;4951279;28;20188;-85
2023/02/18 01:05:50;;;;;;;6.97;1.40;;;7.00;99.90;;;;;;4936803;29;20189;-85
2023/02/18 01:08:17;;;;;;;10.27;1.40;;;7.00;99.90;;;;;;4936751;29;20182;-84
2023/02/18 01:10:45;;;;;;;7.27;1.23;;;7.00;99.90;;;;;;4935662;29;20193;-85
2023/02/18 01:13:13;;;;;;;5.03;1.30;;;7.10;99.90;;;;;;4936668;29;20291;-83
2023/02/18 01:15:40;;;;;;;7.20;1.33;;;7.00;99.90;;;;;;4935760;29;20217;-85
2023/02/18 01:18:07;;;;;;;7.50;1.10;;;6.90;99.90;;;;;;4935555;29;20228;-84
2023/02/18 01:20:35;;;;;;;8.30;1.40;;;7.00;99.90;;;;;;4935228;29;20533;-85
2023/02/18 01:23:01;;;;;;;5.17;1.50;;;6.90;99.90;;;;;;4935703;29;20182;-85
2023/02/18 01:25:27;;;;;;;4.17;1.00;;;6.90;99.90;;;;;;4935554;29;20237;-85
2023/02/18 01:27:52;;;;;;;7.00;1.30;;;7.00;99.90;;;;;;4935734;29;20640;-86
2023/02/18 01:30:18;;;;;;;6.73;1.40;;;6.90;99.90;;;;;;4935468;29;20274;-86
2023/02/18 01:32:44;;;;;;;6.97;1.43;;;6.90;99.90;;;;;;4936758;29;20214;-84
2023/02/18 01:35:12;;;;;;;8.70;1.30;;;6.80;99.90;;;;;;4951442;28;20509;-85
2023/02/18 01:37:38;;;;;;;8.10;1.30;;;6.80;99.90;;;;;;4951357;29;20248;-85
2023/02/18 01:40:05;;;;;;;7.73;1.47;;;6.80;99.90;;;;;;4951169;29;20625;-85
2023/02/18 01:42:32;;;;;;;10.50;1.30;;;6.80;99.90;;;;;;4937143;29;20186;-85
2023/02/18 01:45:46;;;;;;;4.37;1.10;;;6.80;99.90;;;;;;4955041;28;20182;-84
2023/02/18 01:48:17;;;;;;;10.80;2.13;;;6.80;99.90;;;;;;4942642;28;20681;-85
2023/02/18 01:50:50;;;;;;;5.63;1.27;;;6.80;99.90;;;;;;4954850;29;20186;-84
2023/02/18 01:53:32;;;;;;;9.70;1.20;;;7.00;99.90;;;;;;4954949;29;20272;-84
2023/02/18 01:56:01;;;;;;;11.43;1.63;;;6.90;99.90;;;;;;4939967;29;20205;-86
2023/02/18 01:58:27;;;;;;;5.80;1.40;;;7.00;99.90;;;;;;4939081;29;20237;-85
2023/02/18 02:00:54;;;;;;;7.53;1.70;;;6.90;99.90;;;;;;4940346;29;20173;-85
2023/02/18 02:03:19;;;;;;;5.80;1.37;;;7.00;99.90;;;;;;4938840;29;20182;-84
2023/02/18 02:05:45;;;;;;;8.80;1.30;;;6.90;99.90;;;;;;4938634;29;20242;-85
2023/02/18 02:08:11;;;;;;;11.40;1.77;;;7.00;99.90;;;;;;4938861;29;20181;-85
2023/02/18 02:11:05;;;;;;;9.47;1.20;;;7.00;99.90;;;;;;4939848;29;20173;-85
2023/02/18 02:14:05;;;;;;;6.30;1.33;;;7.00;99.90;;;;;;4938653;29;20268;-85
2023/02/18 02:19:54;;;;;;;6.33;1.30;;;7.10;99.90;;;;;;5314020;23;20251;-85
2023/02/18 02:22:47;;;;;;;5.87;1.20;;;7.10;99.90;;;;;;4976949;28;20224;-86
2023/02/18 02:25:58;;;;;;;8.37;1.27;;;7.00;99.90;;;;;;4977510;28;20223;-85
2023/02/18 02:28:58;;;;;;;8.17;1.80;;;7.00;99.90;;;;;;4972941;28;20188;-85
2023/02/18 02:31:44;;;;;;;6.93;1.17;;;7.10;99.90;;;;;;4976989;28;20211;-84
2023/02/18 02:34:29;;;;;;;6.40;1.03;;;7.10;99.90;;;;;;4978004;28;20169;-84
2023/02/18 02:37:09;;;;;;;5.70;1.17;;;7.10;99.90;;;;;;4976667;28;20220;-84
2023/02/18 02:40:14;;;;;;;6.80;1.30;;;7.10;99.90;;;;;;4976898;28;20192;-85
2023/02/18 02:42:46;;;;;;;6.00;1.40;;;7.10;99.90;;;;;;4976873;28;20683;-85
2023/02/18 02:45:42;;;;;;;5.47;1.30;;;7.20;99.90;;;;;;4976840;28;20184;-86
2023/02/18 02:48:25;;;;;;;5.97;1.10;;;7.30;99.90;;;;;;4976237;28;20223;-84
2023/02/18 02:50:53;;;;;;;9.80;1.57;;;7.30;99.90;;;;;;4977779;28;20161;-85
2023/02/18 02:53:24;;;;;;;4.70;1.10;;;7.40;99.90;;;;;;4977833;28;20235;-85
2023/02/18 02:55:50;;;;;;;11.60;1.50;;;7.40;99.90;;;;;;4977208;28;20555;-84
2023/02/18 02:58:18;;;;;;;7.73;1.83;;;7.50;99.90;;;;;;4978237;28;20263;-84
2023/02/18 03:01:12;;;;;;;5.30;1.43;;;7.60;99.90;;;;;;4978021;28;20173;-86
2023/02/18 03:04:08;;;;;;;7.80;1.20;;;7.50;99.90;;;;;;4975920;28;20188;-85
2023/02/18 03:06:57;;;;;;;6.83;1.40;;;7.40;99.90;;;;;;4976612;28;20216;-86
2023/02/18 03:09:25;;;;;;;7.13;1.50;;;7.30;99.90;;;;;;4987285;28;20187;-85
2023/02/18 03:12:17;;;;;;;10.07;1.60;;;7.40;99.90;;;;;;4976690;28;20541;-85
2023/02/18 03:14:54;;;;;;;6.10;1.07;;;7.40;99.90;;;;;;4977720;28;20180;-85
2023/02/18 03:18:08;;;;;;;12.73;1.70;;;7.30;99.90;;;;;;4976444;28;20175;-85
2023/02/18 03:20:38;;;;;;;8.50;1.30;;;7.30;99.90;;;;;;4977131;28;20207;-85
2023/02/18 03:23:08;;;;;;;6.97;1.30;;;7.30;99.90;;;;;;4977619;28;20224;-86
2023/02/18 03:25:36;;;;;;;6.33;1.37;;;7.30;99.90;;;;;;4976435;28;20280;-85
2023/02/18 03:28:12;;;;;;;8.00;1.73;;;7.30;99.90;;;;;;4976237;28;20212;-85
2023/02/18 03:30:49;;;;;;;5.83;1.40;;;7.30;99.90;;;;;;4975746;28;20655;-84
2023/02/18 03:33:22;;;;;;;7.53;1.20;;;7.30;99.90;;;;;;4977020;28;20643;-85
2023/02/18 03:35:49;;;;;;;8.30;1.50;;;7.40;99.90;;;;;;4976285;28;20268;-85
2023/02/18 03:38:24;;;;;;;4.97;1.30;;;7.30;99.90;;;;;;4976111;28;20184;-86
2023/02/18 03:40:51;;;;;;;11.63;1.60;;;7.20;99.90;;;;;;4976962;28;20164;-85
2023/02/18 03:43:17;;;;;;;4.67;0.90;;;7.20;99.90;;;;;;4975390;28;20401;-86
2023/02/18 03:45:43;;;;;;;6.53;1.40;;;7.10;99.90;;;;;;4975682;28;20623;-85
2023/02/18 03:48:08;;;;;;;11.03;1.67;;;7.10;99.90;;;;;;4975312;28;20176;-85
2023/02/18 03:50:36;;;;;;;3.17;1.13;;;7.00;99.90;;;;;;4975490;28;20188;-85
2023/02/18 03:53:02;;;;;;;4.73;1.20;;;7.00;99.90;;;;;;4976665;28;20550;-86
2023/02/18 03:55:27;;;;;;;4.63;1.13;;;7.00;99.90;;;;;;4975493;28;20185;-84
2023/02/18 03:57:53;;;;;;;9.10;1.90;;;7.00;99.90;;;;;;4975615;28;20180;-86
2023/02/18 04:00:19;;;;;;;5.63;1.00;;;7.00;99.90;;;;;;4975440;28;20187;-85
2023/02/18 04:02:45;;;;;;;7.03;1.20;;;7.00;99.90;;;;;;4976593;28;20169;-86
2023/02/18 04:05:11;;;;;;;6.40;1.07;;;7.00;99.90;;;;;;4975271;28;20647;-85
2023/02/18 04:07:37;;;;;;;2.20;1.00;;;7.00;99.90;;;;;;4975735;28;20231;-86
2023/02/18 04:10:04;;;;;;;12.53;2.20;;;7.00;99.90;;;;;;4975126;28;20185;-85
2023/02/18 04:12:30;;;;;;;4.30;1.33;;;7.00;99.90;;;;;;4975059;28;20643;-85
2023/02/18 04:14:55;;;;;;;6.70;1.20;;;7.00;99.90;;;;;;4975093;28;20185;-85
2023/02/18 04:17:21;;;;;;;6.80;1.00;;;7.00;99.90;;;;;;4974805;28;20258;-86
2023/02/18 04:19:47;;;;;;;8.77;1.70;;;7.10;99.90;;;;;;4974252;28;20246;-84
2023/02/18 04:22:13;;;;;;;6.53;2.80;;;7.00;99.90;;;;;;4976197;28;20169;-85
2023/02/18 04:24:38;;;;;;;7.47;1.53;;;7.10;99.90;;;;;;4974922;28;20212;-84
2023/02/18 04:27:04;;;;;;;8.60;1.50;;;7.10;99.90;;;;;;4974913;28;20500;-84
2023/02/18 04:29:30;;;;;;;10.93;1.63;;;7.10;99.90;;;;;;4974625;28;20190;-85
2023/02/18 04:31:56;;;;;;;8.53;1.40;;;7.20;99.90;;;;;;4974738;28;20553;-85
2023/02/18 04:34:22;;;;;;;6.67;1.40;;;7.20;99.90;;;;;;4975855;28;20169;-84
2023/02/18 04:36:48;;;;;;;3.53;1.20;;;7.10;99.90;;;;;;4974782;28;20185;-85
2023/02/18 04:39:13;;;;;;;5.77;1.00;;;7.20;99.90;;;;;;4975179;28;20575;-85
2023/02/18 04:41:39;;;;;;;8.73;1.47;;;7.20;99.90;;;;;;4973976;28;20181;-85
2023/02/18 04:44:05;;;;;;;13.63;1.70;;;7.30;99.90;;;;;;4971997;28;20208;-85
2023/02/18 04:46:31;;;;;;;9.37;1.60;;;7.40;99.90;;;;;;4974076;28;20177;-85
2023/02/18 04:48:57;;;;;;;3.87;1.00;;;7.60;99.90;;;;;;4973759;28;20187;-84
2023/02/18 04:51:24;;;;;;;5.67;0.90;;;7.60;99.90;;;;;;4973843;28;20180;-84
2023/02/18 04:53:49;;;;;;;7.67;1.10;;;7.50;99.90;;;;;;4975043;28;20196;-84
2023/02/18 04:56:15;;;;;;;6.07;1.03;;;7.40;99.90;;;;;;4974075;28;20188;-84
2023/02/18 04:58:41;;;;;;;14.03;1.37;;;7.50;99.90;;;;;;4974008;28;20196;-85
2023/02/18 05:01:06;;;;;;;7.40;1.03;;;7.50;99.90;;;;;;4973516;28;20181;-85
2023/02/18 05:03:32;;;;;;;8.27;1.40;;;7.60;99.90;;;;;;4973616;28;20180;-84
2023/02/18 05:05:58;;;;;;;8.47;1.20;;;7.50;99.90;;;;;;4973946;28;20188;-87
2023/02/18 05:08:24;;;;;;;5.27;1.10;;;7.40;99.90;;;;;;4973918;28;20524;-85
2023/02/18 05:10:51;;;;;;;9.27;1.40;;;7.30;99.90;;;;;;4973631;28;20275;-85
2023/02/18 05:13:17;;;;;;;7.87;1.50;;;7.30;99.90;;;;;;4971406;28;20243;-85
2023/02/18 05:15:43;;;;;;;7.33;1.50;;;7.20;99.90;;;;;;4972846;28;20184;-86
2023/02/18 05:18:09;;;;;;;9.40;1.83;;;7.20;99.90;;;;;;4972755;28;20267;-85
2023/02/18 05:20:36;;;;;;;9.17;1.90;;;7.10;99.90;;;;;;4973840;28;20208;-86
2023/02/18 05:23:01;;;;;;;8.13;1.83;;;7.10;99.90;;;;;;4974435;28;20188;-85
2023/02/18 05:25:27;;;;;;;10.67;2.10;;;7.10;99.90;;;;;;4973475;28;20238;-86
2023/02/18 05:27:53;;;;;;;12.33;2.30;;;7.10;99.90;;;;;;4974413;28;20189;-86
2023/02/18 05:30:21;;;;;;;6.30;2.03;;;7.00;99.90;;;;;;4974446;28;20184;-86
2023/02/18 05:32:47;;;;;;;7.60;2.30;;;7.00;99.90;;;;;;4974527;28;20270;-86
2023/02/18 05:35:13;;;;;;;8.40;2.50;;;7.00;99.90;;;;;;4973881;28;20276;-86
2023/02/18 05:37:38;;;;;;;9.87;2.30;;;7.00;99.90;;;;;;4975021;28;20222;-86
2023/02/18 05:40:05;;;;;;;10.07;2.57;;;7.00;99.90;;;;;;4974273;28;20655;-85
2023/02/18 05:42:31;;;;;;;8.30;2.70;;;6.90;99.90;;;;;;4975009;28;20268;-85
2023/02/18 05:44:58;;;;;;;10.30;2.50;;;6.90;99.90;;;;;;4973960;28;20647;-86
2023/02/18 05:47:23;;;;;;;11.83;3.37;;;6.90;99.90;;;;;;4974230;28;20267;-87
2023/02/18 05:49:49;;;;;;;13.20;2.40;;;6.90;99.90;;;;;;4971367;28;20185;-84
2023/02/18 05:52:16;;;;;;;7.03;2.90;;;6.80;99.90;;;;;;4954797;29;20221;-85
2023/02/18 05:54:43;;;;;;;8.10;2.60;;;6.80;99.90;;;;;;4956012;28;20204;-86
2023/02/18 05:57:12;;;;;;;14.13;3.67;;;6.80;99.90;;;;;;4956085;28;20178;-86
2023/02/18 05:59:37;;;;;;;10.33;4.20;;;6.90;99.90;;;;;;4954871;29;20210;-85
2023/02/18 06:02:04;;;;;;;12.50;3.73;;;6.80;99.90;;;;;;4954668;29;20181;-85
2023/02/18 06:04:30;;;;;;;10.13;4.20;;;6.80;99.90;;;;;;4954529;29;20236;-86
2023/02/18 06:06:56;;;;;;;10.40;3.73;;;6.80;99.90;;;;;;4954467;29;20181;-86
2023/02/18 06:09:21;;;;;;;12.20;4.20;;;6.70;99.90;;;;;;4954636;29;20181;-86
2023/02/18 06:11:48;;;;;;;11.70;4.57;;;6.70;99.90;;;;;;4954586;29;20223;-86
2023/02/18 06:14:14;;;;;;;14.03;4.27;;;6.60;99.90;;;;;;4959658;28;20207;-87
2023/02/18 06:16:40;;;;;;;10.63;4.00;;;6.70;99.90;;;;;;4975086;28;20185;-87
2023/02/18 06:19:06;;;;;;;11.10;4.50;;;6.70;99.90;;;;;;4973729;28;20267;-86
2023/02/18 06:21:31;;;;;;;10.73;4.30;;;6.60;99.90;;;;;;4973983;28;20200;-87
2023/02/18 06:23:57;;;;;;;14.37;3.90;;;6.60;99.90;;;;;;4972898;28;20176;-86
2023/02/18 06:26:23;;;;;;;14.80;4.13;;;6.60;99.90;;;;;;4972662;28;20487;-86
2023/02/18 06:28:48;;;;;;;14.70;4.30;;;6.60;99.90;;;;;;4973307;28;20180;-87
2023/02/18 06:31:14;;;;;;;12.77;4.33;;;6.60;99.90;;;;;;4977198;28;20200;-88
2023/02/18 06:33:40;;;;;;;15.00;4.47;;;6.60;99.90;;;;;;4976784;28;20208;-87
2023/02/18 06:36:10;;;;;;;15.77;5.27;;;6.60;99.90;;;;;;4976697;28;20616;-87
2023/02/18 06:38:37;;;;;;;11.17;4.43;;;6.60;99.90;;;;;;4976143;28;20214;-86
2023/02/18 06:41:04;;;;;;;13.27;5.03;;;6.60;99.90;;;;;;4975710;28;20176;-87
2023/02/18 06:43:29;;;;;;;12.90;4.77;;;6.60;99.90;;;;;;4975098;28;20264;-86
2023/02/18 06:45:55;;;;;;;15.30;4.43;;;6.60;99.90;;;;;;4975637;28;20592;-85
2023/02/18 06:48:21;;;;;;;13.63;4.57;;;6.60;99.90;;;;;;4976080;28;20177;-85
2023/02/18 06:50:48;;;;;;;12.90;4.83;;;6.60;99.90;;;;;;4976011;28;20191;-85
2023/02/18 06:53:15;;;;;;;13.97;4.80;;;6.60;99.90;;;;;;4976135;28;20558;-85
2023/02/18 06:55:42;;;;;;;13.47;4.37;;;6.60;99.90;;;;;;4975423;28;20208;-86
2023/02/18 06:58:09;;;;;;;14.50;5.13;;;6.60;99.90;;;;;;4976209;28;20535;-85
2023/02/18 07:00:35;;;;;;;15.53;5.17;;;6.60;99.90;;;;;;4976260;28;20520;-86
2023/02/18 07:03:01;;;;;;;13.47;4.90;;;6.60;99.90;;;;;;4976254;28;20211;-85
2023/02/18 07:05:27;;;;;;;13.13;4.70;;;6.60;99.90;;;;;;4977499;28;20175;-86
2023/02/18 07:07:53;;;;;;;12.77;4.77;;;6.60;99.90;;;;;;4976357;28;20188;-85
2023/02/18 07:10:19;;;;;;;16.43;5.50;;;6.60;99.90;;;;;;4975299;28;20239;-84
2023/02/18 07:12:44;;;;;;;14.03;5.07;;;6.60;99.90;;;;;;4974895;28;20703;-85
2023/02/18 07:15:10;;;;;;;12.47;4.97;;;6.60;99.90;;;;;;4974765;28;20188;-85
2023/02/18 07:17:36;;;;;;;16.10;5.67;;;6.60;99.90;;;;;;4975515;28;20195;-86
2023/02/18 07:20:03;;;;;;;15.57;5.67;;;6.60;99.90;;;;;;4975144;28;20228;-87
2023/02/18 07:22:29;;;;;;;16.23;5.53;;;6.60;99.90;;;;;;4975463;28;20196;-85
2023/02/18 07:24:55;;;;;;;14.40;5.63;;;6.60;99.90;;;;;;4975797;28;20173;-86
2023/02/18 07:27:21;;;;;;;15.70;6.30;;;6.60;99.90;;;;;;4975722;28;20185;-87
2023/02/18 07:29:47;;;;;;;14.40;5.20;;;6.60;99.90;;;;;;4975487;28;20184;-87
2023/02/18 07:32:14;;;;;;;14.17;5.43;;;6.60;99.90;;;;;;4975456;28;20552;-85
2023/02/18 07:34:40;;;;;;;10.53;5.50;;;6.60;99.90;;;;;;4975539;28;20620;-86
2023/02/18 07:37:08;;;;;;;10.50;5.17;;;6.60;99.90;;;;;;4975378;28;20254;-87
2023/02/18 07:39:40;;;;;;;12.10;5.33;;;6.60;99.90;;;;;;4975232;28;20184;-85
2023/02/18 07:42:05;;;;;;;13.23;4.87;;;6.60;99.90;;;;;;4974532;28;20204;-85
2023/02/18 07:44:31;;;;;;;11.30;4.97;;;6.60;99.90;;;;;;4961673;28;20280;-86
2023/02/18 07:46:57;;;;;;;15.70;4.83;;;6.60;99.90;;;;;;4955861;29;20189;-85
2023/02/18 07:49:23;;;;;;;9.30;4.73;;;6.70;99.90;;;;;;4956920;28;20173;-85
2023/02/18 07:51:49;;;;;;;9.50;4.43;;;6.70;99.90;;;;;;4955801;29;20307;-86
2023/02/18 07:54:15;;;;;;;12.80;5.90;;;6.70;99.90;;;;;;4956993;28;20236;-86
2023/02/18 07:56:42;;;;;;;11.43;5.73;;;6.70;99.90;;;;;;4955563;29;20213;-86
2023/02/18 07:59:08;;;;;;;10.10;5.20;;;6.70;99.90;;;;;;4955708;29;20228;-85
2023/02/18 08:01:34;;;;;;;9.00;5.43;;;6.80;99.90;;;;;;4955461;29;20531;-86
2023/02/18 08:03:59;;;;;;;11.53;5.03;;;6.70;99.90;;;;;;4969842;28;20165;-88
2023/02/18 08:06:32;;;;;;;14.83;6.13;;;6.70;99.90;;;;;;4974654;28;20215;-85
2023/02/18 08:08:58;;;;;;;15.27;6.70;;;6.70;99.90;;;;;;4972318;28;20588;-83
2023/02/18 08:11:24;;;;;;;13.83;7.07;;;6.70;99.90;;;;;;4975036;28;20208;-85
2023/02/18 08:13:50;;;;;;;18.90;7.10;;;6.70;99.90;;;;;;4966504;28;20197;-86
2023/02/18 08:16:18;;;;;;;15.37;8.53;;;6.70;99.90;;;;;;4956550;28;20174;-85
2023/02/18 08:18:44;;;;;;;13.43;7.53;;;6.80;99.90;;;;;;4974128;28;20323;-84
2023/02/18 08:21:09;;;;;;;15.77;7.87;;;6.80;99.90;;;;;;4974580;28;20183;-85
2023/02/18 08:23:35;;;;;;;14.70;7.30;;;6.70;99.90;;;;;;4974386;28;20176;-83
2023/02/18 08:26:01;;;;;;;13.83;8.20;;;6.70;99.90;;;;;;4973511;28;20189;-84
2023/02/18 08:28:26;;;;;;;14.60;8.53;;;6.80;99.90;;;;;;4975481;28;20219;-85
2023/02/18 08:30:53;;;;;;;13.23;8.23;;;6.70;99.90;;;;;;4972651;28;20527;-85
2023/02/18 08:33:20;;;;;;;16.37;8.23;;;6.80;99.90;;;;;;4973783;28;20304;-85
2023/02/18 08:35:47;;;;;;;13.87;8.27;;;6.80;99.90;;;;;;4973836;28;20620;-85
2023/02/18 08:38:13;;;;;;;16.50;7.80;;;6.80;99.90;;;;;;4973689;28;20191;-86
2023/02/18 08:40:41;;;;;;;14.27;8.07;;;6.80;99.90;;;;;;4973373;28;20559;-86
2023/02/18 08:43:08;;;;;;;13.37;8.50;;;6.80;99.90;;;;;;4961060;28;20605;-88
2023/02/18 08:45:33;;;;;;;17.37;8.07;;;6.80;99.90;;;;;;4955343;29;20185;-87
2023/02/18 08:47:59;;;;;;;12.93;7.70;;;6.90;99.90;;;;;;4973098;28;20658;-86
2023/02/18 08:50:27;;;;;;;14.37;8.33;;;6.90;99.90;;;;;;4974273;28;20185;-84
2023/02/18 08:52:52;;;;;;;12.43;7.47;;;6.90;99.90;;;;;;4972482;28;20616;-86
2023/02/18 08:55:20;;;;;;;13.03;7.43;;;6.90;99.90;;;;;;4974174;28;20176;-84
2023/02/18 08:57:47;;;;;;;11.03;7.30;;;7.10;99.90;;;;;;4974135;28;20192;-82
2023/02/18 09:00:14;;;;;;;10.70;7.03;;;7.10;99.90;;;;;;4975076;28;20187;-83
2023/02/18 09:02:40;;;;;;;12.07;7.80;;;7.10;99.90;;;;;;4974935;28;20176;-85
2023/02/18 09:05:06;;;;;;;12.60;7.90;;;7.30;99.90;;;;;;4973153;28;20188;-85
2023/02/18 09:07:31;;;;;;;13.13;8.47;;;7.40;99.90;;;;;;4974214;28;20192;-85
2023/02/18 09:09:57;;;;;;;16.17;9.87;;;7.30;99.90;;;;;;4973340;28;20686;-82
2023/02/18 09:12:23;;;;;;;17.03;9.07;;;7.40;99.90;;;;;;4973215;28;20215;-83
2023/02/18 09:14:48;;;;;;;17.80;10.30;;;7.50;99.90;;;;;;4974318;28;20242;-83
2023/02/18 09:17:14;;;;;;;18.60;9.50;;;7.60;99.90;;;;;;4973728;28;20185;-86
2023/02/18 09:19:40;;;;;;;15.70;9.27;;;7.70;99.90;;;;;;4963667;28;20266;-85
2023/02/18 09:22:05;;;;;;;15.50;8.50;;;7.90;99.90;;;;;;4954710;29;20525;-86
2023/02/18 09:24:37;;;;;;;14.53;7.97;;;7.90;99.90;;;;;;4954687;29;20196;-84
2023/02/18 09:27:03;;;;;;;13.83;7.40;;;8.10;99.90;;;;;;4954552;29;20184;-88
2023/02/18 09:29:28;;;;;;;14.23;7.20;;;8.20;99.90;;;;;;4954484;29;20529;-85
2023/02/18 09:31:54;;;;;;;10.82;6.07;;;8.30;99.90;;;;;;4955351;28;20201;-87
2023/02/18 09:34:20;;;;;;;9.43;4.90;;;8.50;99.90;;;;;;4954758;29;20666;-87
2023/02/18 09:36:45;;;;;;;6.90;3.73;;;8.60;99.90;;;;;;4954911;29;20177;-91
2023/02/18 09:39:14;;;;;;;8.37;3.90;;;8.70;99.90;;;;;;4954476;29;20185;-87
2023/02/18 09:41:47;;;;;;;5.70;2.85;;;8.80;99.90;;;;;;4954496;29;20185;-86
2023/02/18 09:44:29;;;;;;;4.50;2.80;;;9.00;99.90;;;;;;4954136;29;20188;-87
2023/02/18 09:47:00;;;;;;;3.95;2.47;;;9.00;99.90;;;;;;4954722;29;20181;-86
2023/02/18 09:49:29;;;;;;;3.30;1.67;;;9.10;99.90;;;;;;4954271;28;20228;-85
2023/02/18 09:51:56;;;;;;;3.45;1.90;;;9.20;99.90;;;;;;4954514;28;20228;-85
2023/02/18 09:54:22;;;;;;;3.40;1.55;;;9.20;99.90;;;;;;4955498;28;20177;-85
2023/02/18 09:56:48;;;;;;;2.63;1.90;;;9.30;99.90;;;;;;4954709;28;20192;-84
2023/02/18 09:59:21;;;;;;;2.72;1.88;;;9.30;99.90;;;;;;4969618;28;20219;-86
2023/02/18 10:01:50;;;;;;;2.97;1.77;;;9.30;99.90;;;;;;4973319;28;20185;-85
2023/02/18 10:04:41;;;;;;;2.25;1.73;;;9.40;99.90;;;;;;4975190;28;20181;-87
2023/02/18 10:07:39;;;;;;;3.70;1.58;;;9.40;99.90;;;;;;4977333;28;20208;-87
2023/02/18 10:10:36;;;;;;;2.15;1.50;;;9.50;99.90;;;;;;4990104;28;20242;-86
2023/02/18 10:13:02;;;;;;;2.35;1.70;;;9.50;99.90;;;;;;4978413;28;20212;-87
2023/02/18 10:15:30;;;;;;;1.60;1.50;;;9.60;99.90;;;;;;4977296;28;20188;-88
2023/02/18 10:17:57;;;;;;;3.22;1.92;;;9.60;99.90;;;;;;4970661;28;20189;-86
2023/02/18 10:20:27;;;;;;;2.97;1.70;;;9.60;99.90;;;;;;4972853;28;20287;-88
2023/02/18 10:22:57;;;;;;;2.00;1.65;;;9.60;99.90;;;;;;4977091;28;20608;-87
2023/02/18 10:25:23;;;;;;;1.55;1.45;;;9.70;99.90;;;;;;4977011;28;20687;-87
2023/02/18 10:27:52;;;;;;;3.15;1.40;;;9.70;99.90;;;;;;4978278;28;20179;-86
2023/02/18 10:30:31;;;;;;;3.03;1.38;;;9.80;99.90;;;;;;4976589;28;20251;-89
2023/02/18 10:33:30;;;;;;;1.73;1.50;;;9.70;99.90;;;;;;4976671;28;20214;-87
2023/02/18 10:36:33;;;;;;;1.65;1.45;;;9.70;99.90;;;;;;4974603;28;20256;-85
2023/02/18 10:39:06;;;;;;;3.53;2.63;;;9.70;99.90;;;;;;4957953;28;20192;-82
2023/02/18 10:41:47;;;;;;;1.20;1.10;;;9.70;99.90;;;;;;4962546;28;20181;-86
2023/02/18 10:44:25;;;;;;;1.85;1.30;;;9.80;99.90;;;;;;4975412;28;20238;-82
2023/02/18 10:47:17;;;;;;;1.73;1.30;;;9.80;99.90;;;;;;4976746;28;20523;-83
2023/02/18 10:49:57;;;;;;;1.55;1.33;;;9.80;99.90;;;;;;4974240;28;20643;-85
2023/02/18 10:52:28;;;;;;;1.55;1.40;;;9.90;99.90;;;;;;4976406;28;20211;-86
2023/02/18 10:55:03;;;;;;;1.65;1.20;;;9.90;99.90;;;;;;4973725;28;20217;-84
2023/02/18 10:57:30;;;;;;;1.70;1.23;;;9.90;99.90;;;;;;4973476;28;20215;-88
2023/02/18 11:00:25;;;;;;;1.83;1.10;;;9.90;99.90;;;;;;4977060;28;20188;-85
2023/02/18 11:03:09;;;;;;;4.03;1.30;;;9.90;99.90;;;;;;4976096;28;20184;-88
2023/02/18 11:05:37;;;;;;;1.10;1.00;;;10.00;99.90;;;;;;4962819;28;20573;-88
2023/02/18 11:08:08;;;;;;;1.15;1.00;;;10.00;99.90;;;;;;4957087;28;20181;-87
2023/02/18 11:10:39;;;;;;;1.60;1.20;;;10.00;99.90;;;;;;4956892;29;20173;-86
2023/02/18 11:13:07;;;;;;;1.30;1.20;;;10.00;99.90;;;;;;4959463;28;20645;-85
2023/02/18 11:15:34;;;;;;;1.45;1.00;;;10.00;99.90;;;;;;4975383;28;20173;-84
2023/02/18 11:18:26;;;;;;;1.02;0.90;;;10.00;99.90;;;;;;4975523;28;21640;-85
2023/02/18 11:21:20;;;;;;;1.27;1.13;;;10.00;99.90;;;;;;4976156;28;20216;-86
2023/02/18 11:23:49;;;;;;;1.77;1.35;;;10.00;99.90;;;;;;4968371;28;20193;-84
2023/02/18 11:26:16;;;;;;;1.30;1.20;;;10.00;99.90;;;;;;4975011;28;20256;-84
2023/02/18 11:28:48;;;;;;;2.30;1.30;;;10.00;99.90;;;;;;4975507;28;20216;-85
2023/02/18 11:31:25;;;;;;;2.10;1.60;;;10.00;99.90;;;;;;4981555;28;20184;-85
2023/02/18 11:33:56;;;;;;;1.50;1.20;;;10.00;99.90;;;;;;4959693;28;20219;-87
2023/02/18 11:36:34;;;;;;;1.42;1.17;;;10.00;99.90;;;;;;4975075;28;20228;-87
2023/02/18 11:39:16;;;;;;;1.55;1.20;;;10.00;99.90;;;;;;4975286;28;20180;-85
2023/02/18 11:41:46;;;;;;;1.20;1.10;;;10.10;99.90;;;;;;4975190;28;20171;-86
2023/02/18 11:44:30;;;;;;;2.95;1.10;;;10.20;99.90;;;;;;4971512;28;20914;-86
2023/02/18 11:47:00;;;;;;;1.42;1.33;;;10.10;99.90;;;;;;4969392;28;20218;-82
2023/02/18 11:49:26;;;;;;;1.33;1.23;;;10.20;99.90;;;;;;4989207;28;20220;-85
2023/02/18 11:51:52;;;;;;;1.92;1.20;;;10.20;99.90;;;;;;4971152;28;20346;-86
2023/02/18 11:54:29;;;;;;;1.83;1.67;;;10.10;99.90;;;;;;4973899;28;20196;-87
2023/02/18 11:56:59;;;;;;;3.25;1.80;;;10.00;99.90;;;;;;4974408;28;20192;-85
2023/02/18 11:59:26;;;;;;;1.80;1.48;;;10.00;99.90;;;;;;4973803;28;20696;-81
2023/02/18 12:02:35;;;;;;;1.85;1.55;;;10.00;99.90;;;;;;4973899;28;20191;-86
2023/02/18 12:05:23;;;;;;;1.55;1.45;;;9.90;99.90;;;;;;4965873;28;20196;-82
2023/02/18 12:07:57;;;;;;;2.15;1.73;;;9.90;99.90;;;;;;4974177;28;20195;-83
2023/02/18 12:10:38;;;;;;;2.20;1.92;;;9.90;99.90;;;;;;4973646;28;20185;-83
2023/02/18 12:13:19;;;;;;;2.25;2.05;;;9.90;99.90;;;;;;4973087;28;20274;-84
2023/02/18 12:16:27;;;;;;;2.63;2.17;;;9.90;99.90;;;;;;4973973;28;20180;-84
2023/02/18 12:19:01;;;;;;;3.30;1.92;;;9.80;99.90;;;;;;4971136;28;20721;-83
2023/02/18 12:22:15;;;;;;;3.15;2.08;;;9.80;99.90;;;;;;4973553;28;20199;-83
2023/02/18 12:25:09;;;;;;;2.30;2.10;;;9.90;99.90;;;;;;4969545;28;20229;-83
2023/02/18 12:27:49;;;;;;;4.88;2.30;;;9.80;99.90;;;;;;4972730;28;20188;-82
2023/02/18 12:30:39;;;;;;;2.53;1.83;;;9.90;99.90;;;;;;4969927;28;20188;-86
2023/02/18 12:33:17;;;;;;;3.00;1.73;;;9.80;99.90;;;;;;4974290;28;20208;-82
2023/02/18 12:36:16;;;;;;;1.95;1.75;;;9.80;99.90;;;;;;4973624;28;20519;-81
2023/02/18 12:38:50;;;;;;;2.70;1.65;;;9.80;99.90;;;;;;4972983;28;20254;-83
2023/02/18 12:41:37;;;;;;;1.52;1.42;;;9.80;99.90;;;;;;4969237;28;20235;-83
2023/02/18 12:44:17;;;;;;;1.58;1.33;;;9.90;99.90;;;;;;4970625;28;20243;-81
2023/02/18 12:47:21;;;;;;;1.15;1.05;;;9.90;99.90;;;;;;4973318;28;20184;-83
2023/02/18 12:50:01;;;;;;;1.27;1.10;;;9.90;99.90;;;;;;4971241;28;20200;-84
2023/02/18 12:52:53;;;;;;;1.00;0.90;;;9.90;99.90;;;;;;4970919;28;20223;-86
2023/02/18 12:55:34;;;;;;;2.10;1.35;;;9.80;99.90;;;;;;4968837;28;20184;-81
2023/02/18 12:58:27;;;;;;;1.50;1.05;;;9.80;99.90;;;;;;4970438;28;20196;-82
2023/02/18 13:01:16;;;;;;;1.73;1.30;;;9.80;99.90;;;;;;4972445;28;20191;-82
2023/02/18 13:04:19;;;;;;;1.13;0.98;;;9.80;99.90;;;;;;4963058;28;20662;-82
2023/02/18 13:07:11;;;;;;;1.25;1.05;;;9.80;99.90;;;;;;4971936;28;20278;-82
2023/02/18 13:10:19;;;;;;;1.40;1.30;;;9.80;99.90;;;;;;4970635;28;20201;-82
2023/02/18 13:12:57;;;;;;;1.73;1.10;;;9.80;99.90;;;;;;4972466;28;20303;-82
2023/02/18 13:15:36;;;;;;;1.55;1.30;;;9.90;99.90;;;;;;4968933;28;20199;-85
2023/02/18 13:18:08;;;;;;;1.10;1.00;;;9.80;99.90;;;;;;4971597;28;20307;-83
2023/02/18 13:20:42;;;;;;;1.40;1.25;;;9.90;99.90;;;;;;4973322;28;20188;-82